Time;durP1;ratioP1;P1;durP2;ratioP2;P2;SDS_P1;SDS_P2;PMS_P1;PMS_P2;Temp;Humidity;BMP_temperature;BMP_pressure;BME280_temperature;BME280_humidity;BME280_pressure;Samples;Min_cycle;Max_cycle;Signal;HPM_P1;HPM_P2
2022/04/15 00:02:07;;;;;;;4.22;2.00;;;;;;;8.01;nan;100393.19;10404294;28;20048;-71
2022/04/15 00:07:10;;;;;;;6.93;2.20;;;;;;;8.00;nan;100381.91;10409190;28;20037;-72
2022/04/15 00:12:17;;;;;;;5.28;2.00;;;;;;;8.01;nan;100393.19;10413353;28;20052;-71
2022/04/15 00:17:20;;;;;;;6.47;2.05;;;;;;;7.97;nan;100366.16;10411819;28;20028;-72
2022/04/15 00:22:23;;;;;;;5.30;2.13;;;;;;;8.02;nan;100393.22;10418101;28;20044;-72
2022/04/15 00:27:25;;;;;;;6.82;1.95;;;;;;;7.95;nan;100371.34;10420806;28;20051;-72
2022/04/15 00:32:27;;;;;;;4.10;2.00;;;;;;;7.92;nan;100358.25;10402034;28;20049;-72
2022/04/15 00:37:29;;;;;;;4.32;1.85;;;;;;;7.91;nan;100356.50;10414328;28;20037;-71
2022/04/15 00:42:31;;;;;;;7.43;2.22;;;;;;;7.95;nan;100370.47;10417328;28;20641;-71
2022/04/15 00:47:53;;;;;;;3.22;1.58;;;;;;;7.95;nan;100384.38;10418196;28;20045;-71
2022/04/15 00:53:01;;;;;;;7.60;2.15;;;;;;;7.91;nan;100364.31;10403278;28;20053;-72
2022/04/15 00:58:05;;;;;;;3.65;1.90;;;;;;;7.90;nan;100362.56;10409584;28;20049;-71
2022/04/15 01:03:07;;;;;;;3.28;1.48;;;;;;;7.90;nan;100365.16;10389471;28;20683;-71
2022/04/15 01:08:12;;;;;;;4.90;1.98;;;;;;;7.88;nan;100353.84;10407350;28;20535;-71
2022/04/15 01:13:14;;;;;;;3.97;1.63;;;;;;;7.89;nan;100368.59;10393564;28;20405;-72
2022/04/15 01:18:23;;;;;;;6.25;1.77;;;;;;;7.89;nan;100362.53;10399867;28;20529;-71
2022/04/15 01:23:24;;;;;;;4.90;1.77;;;;;;;7.89;nan;100371.22;10402715;28;20224;-71
2022/04/15 01:28:26;;;;;;;7.22;2.40;;;;;;;7.87;nan;100359.88;10406577;28;20053;-71
2022/04/15 01:33:28;;;;;;;6.78;1.90;;;;;;;7.84;nan;100352.00;10395428;28;20048;-72
2022/04/15 01:38:30;;;;;;;8.30;1.98;;;;;;;7.87;nan;100367.72;10414233;28;20072;-71
2022/04/15 01:43:32;;;;;;;6.28;2.05;;;;;;;7.83;nan;100347.63;10412944;28;20052;-72
2022/04/15 01:48:33;;;;;;;5.97;2.13;;;;;;;7.89;nan;100378.16;10417066;28;20045;-72
2022/04/15 01:53:35;;;;;;;7.00;2.63;;;;;;;7.90;nan;100388.63;10413772;28;20061;-72
2022/04/15 01:58:36;;;;;;;6.35;2.55;;;;;;;7.90;nan;100385.16;10405764;28;20045;-72
2022/04/15 02:03:39;;;;;;;7.30;3.00;;;;;;;7.86;nan;100368.53;10394696;28;20052;-71
2022/04/15 02:08:44;;;;;;;9.35;3.70;;;;;;;7.77;nan;100337.06;10394900;28;20482;-71
2022/04/15 02:13:45;;;;;;;7.80;3.58;;;;;;;7.79;nan;100340.59;10391016;28;20045;-71
2022/04/15 02:18:47;;;;;;;10.90;3.65;;;;;;;7.74;nan;100326.59;10413413;28;20044;-71
2022/04/15 02:23:49;;;;;;;8.13;4.03;;;;;;;7.66;nan;100294.28;10400362;28;20445;-71
2022/04/15 02:28:50;;;;;;;10.35;4.47;;;;;;;7.62;nan;100282.91;10409089;28;20060;-72
2022/04/15 02:33:52;;;;;;;9.02;4.05;;;;;;;7.54;nan;100256.69;10392838;28;20488;-71
2022/04/15 02:38:54;;;;;;;8.93;4.07;;;;;;;7.46;nan;100223.50;10412527;28;20064;-71
2022/04/15 02:43:56;;;;;;;7.82;3.83;;;;;;;7.49;nan;100240.09;10411575;28;20124;-71
2022/04/15 02:48:57;;;;;;;6.95;3.55;;;;;;;7.39;nan;100193.84;10404994;28;20069;-71
2022/04/15 02:53:59;;;;;;;7.18;3.65;;;;;;;7.32;nan;100166.78;10413922;28;20763;-71
2022/04/15 02:59:00;;;;;;;9.50;4.13;;;;;;;7.28;nan;100161.50;10406500;28;20034;-72
2022/04/15 03:04:02;;;;;;;11.05;4.70;;;;;;;7.17;nan;100117.88;10404610;28;20072;-71
2022/04/15 03:09:04;;;;;;;7.38;3.53;;;;;;;7.15;nan;100106.56;10400686;28;20045;-71
2022/04/15 03:14:06;;;;;;;12.23;3.83;;;;;;;7.02;nan;100057.72;10397067;28;20037;-71
2022/04/15 03:19:08;;;;;;;10.00;3.90;;;;;;;6.98;nan;100042.88;10409097;28;20413;-72
2022/04/15 03:24:09;;;;;;;10.27;4.65;;;;;;;6.90;nan;100012.38;10392985;28;20056;-69
2022/04/15 03:29:11;;;;;;;14.65;4.63;;;;;;;6.90;nan;100015.00;10403343;28;20038;-71
2022/04/15 03:34:13;;;;;;;9.50;5.10;;;;;;;6.96;nan;100039.38;10393522;28;20072;-71
2022/04/15 03:39:15;;;;;;;13.32;5.30;;;;;;;6.90;nan;100022.78;10404406;28;20048;-71
2022/04/15 03:44:16;;;;;;;11.68;5.57;;;;;;;6.83;nan;99989.69;10391130;28;20101;-71
2022/04/15 03:49:20;;;;;;;14.52;5.03;;;;;;;6.78;nan;99969.63;10409129;28;20040;-71
2022/04/15 03:54:22;;;;;;;9.50;4.03;;;;;;;6.64;nan;99918.19;10407402;28;20057;-71
2022/04/15 03:59:23;;;;;;;6.40;2.78;;;;;;;6.64;nan;99920.78;10416603;28;20497;-71
2022/04/15 04:04:25;;;;;;;9.13;2.75;;;;;;;6.65;nan;99932.06;10403367;28;20460;-71
2022/04/15 04:09:29;;;;;;;6.65;2.80;;;;;;;6.62;nan;99914.69;10407043;28;20161;-72
2022/04/15 04:14:31;;;;;;;6.20;3.08;;;;;;;6.62;nan;99925.09;10415175;28;20114;-72
2022/04/15 04:19:32;;;;;;;8.93;3.47;;;;;;;6.65;nan;99934.66;10406421;28;20048;-72
2022/04/15 04:24:34;;;;;;;10.00;2.95;;;;;;;6.66;nan;99939.91;10404471;28;20033;-72
2022/04/15 04:29:35;;;;;;;6.57;3.10;;;;;;;6.59;nan;99913.75;10407996;28;20099;-72
2022/04/15 04:34:37;;;;;;;7.18;3.30;;;;;;;6.66;nan;99944.22;10388221;28;20041;-72
2022/04/15 04:39:39;;;;;;;9.63;3.38;;;;;;;6.70;nan;99951.25;10410555;28;20045;-71
2022/04/15 04:44:41;;;;;;;5.82;3.10;;;;;;;6.69;nan;99952.09;10414320;28;20050;-71
2022/04/15 04:49:43;;;;;;;7.75;3.33;;;;;;;6.72;nan;99972.97;10402829;28;20363;-71
2022/04/15 04:54:44;;;;;;;7.38;3.42;;;;;;;6.73;nan;99980.81;10405828;28;20037;-71
2022/04/15 04:59:46;;;;;;;6.95;2.92;;;;;;;6.77;nan;99986.97;10409845;28;20049;-70
2022/04/15 05:04:48;;;;;;;7.70;3.45;;;;;;;6.78;nan;99993.91;10403127;28;20049;-71
2022/04/15 05:09:51;;;;;;;8.02;3.78;;;;;;;6.81;nan;100012.19;10410707;28;20072;-70
2022/04/15 05:14:53;;;;;;;10.68;3.80;;;;;;;6.86;nan;100044.41;10415816;28;20045;-70
2022/04/15 05:19:54;;;;;;;9.23;3.55;;;;;;;6.84;nan;100033.06;10416744;28;20036;-70
2022/04/15 05:24:56;;;;;;;10.85;3.75;;;;;;;6.92;nan;100060.97;10415734;28;20045;-70
2022/04/15 05:29:58;;;;;;;11.35;4.10;;;;;;;6.98;nan;100081.91;10408758;28;20475;-70
2022/04/15 05:34:59;;;;;;;11.43;3.58;;;;;;;7.02;nan;100107.16;10407549;28;20076;-70
2022/04/15 05:40:03;;;;;;;6.80;3.10;;;;;;;7.06;nan;100127.22;10405079;28;20471;-70
2022/04/15 05:45:05;;;;;;;9.98;3.58;;;;;;;7.02;nan;100108.03;10411923;28;20037;-70
2022/04/15 05:50:07;;;;;;;12.30;3.92;;;;;;;7.04;nan;100121.97;10402861;28;20068;-70
2022/04/15 05:55:09;;;;;;;12.95;4.82;;;;;;;7.10;nan;100144.66;10417671;28;20653;-71
2022/04/15 06:00:11;;;;;;;11.18;5.28;;;;;;;7.04;nan;100124.59;10405583;28;20080;-71
2022/04/15 06:05:13;;;;;;;15.30;5.18;;;;;;;7.01;nan;100113.22;10407317;28;20052;-69
2022/04/15 06:10:20;;;;;;;14.60;5.30;;;;;;;7.01;nan;100115.81;10410254;28;20189;-71
2022/04/15 06:15:28;;;;;;;13.88;5.75;;;;;;;7.06;nan;100137.63;10394375;28;20041;-71
2022/04/15 06:20:32;;;;;;;13.23;6.30;;;;;;;7.11;nan;100162.03;10411498;28;20113;-72
2022/04/15 06:25:35;;;;;;;20.17;6.85;;;;;;;7.10;nan;100159.38;10389444;28;20041;-71
2022/04/15 06:30:42;;;;;;;15.30;7.05;;;;;;;7.16;nan;100182.94;10391935;28;20449;-71
2022/04/15 06:35:48;;;;;;;22.15;7.82;;;;;;;7.13;nan;100175.97;10407466;28;20069;-71
2022/04/15 06:40:50;;;;;;;20.58;7.75;;;;;;;7.05;nan;100146.28;10404397;28;20049;-72
2022/04/15 06:45:51;;;;;;;20.58;8.00;;;;;;;7.11;nan;100161.16;10409051;28;20045;-71
2022/04/15 06:50:54;;;;;;;18.33;5.90;;;;;;;7.15;nan;100184.69;10408268;28;20122;-71
2022/04/15 06:55:56;;;;;;;15.75;7.32;;;;;;;7.11;nan;100176.78;10404890;28;20061;-72
2022/04/15 07:00:58;;;;;;;14.40;6.63;;;;;;;7.13;nan;100183.78;10399886;28;20797;-71
2022/04/15 07:06:00;;;;;;;14.80;7.07;;;;;;;7.08;nan;100164.56;10390680;28;20408;-71
2022/04/15 07:11:05;;;;;;;16.20;7.38;;;;;;;7.13;nan;100186.38;10384230;28;20646;-71
2022/04/15 07:16:13;;;;;;;18.13;8.23;;;;;;;7.25;nan;100233.50;10366892;28;20096;-71
2022/04/15 07:21:16;;;;;;;20.60;8.52;;;;;;;7.24;nan;100225.66;10372681;28;20065;-71
2022/04/15 07:26:18;;;;;;;16.52;7.97;;;;;;;7.38;nan;100291.06;10399143;28;20900;-71
2022/04/15 07:31:19;;;;;;;19.40;8.48;;;;;;;7.41;nan;100306.78;10402339;28;20033;-72
2022/04/15 07:41:41;;;;;;;21.33;8.93;;;;;;;7.51;nan;100346.94;10410701;28;20030;-71
2022/04/15 07:46:44;;;;;;;25.10;9.32;;;;;;;7.56;nan;100368.75;10392302;28;20069;-73
2022/04/15 07:51:45;;;;;;;20.75;8.60;;;;;;;7.79;nan;100460.47;10402021;28;20037;-74
2022/04/15 07:56:47;;;;;;;20.35;8.48;;;;;;;7.77;nan;100460.44;10397001;28;20068;-71
2022/04/15 08:01:49;;;;;;;14.65;7.05;;;;;;;7.81;nan;100474.44;10412613;28;20040;-72
2022/04/15 08:07:01;;;;;;;19.23;7.15;;;;;;;7.86;nan;100498.03;10411431;28;20065;-72
2022/04/15 08:12:03;;;;;;;16.30;5.57;;;;;;;7.79;nan;100471.81;10393205;28;20095;-71
2022/04/15 08:17:05;;;;;;;13.45;5.55;;;;;;;7.92;nan;100521.63;10413421;28;20037;-71
2022/04/15 08:22:09;;;;;;;14.48;6.28;;;;;;;7.97;nan;100549.56;10405529;28;20041;-71
2022/04/15 08:27:11;;;;;;;16.35;6.40;;;;;;;7.99;nan;100562.66;10413210;28;20047;-70
2022/04/15 08:32:12;;;;;;;17.13;6.72;;;;;;;8.04;nan;100576.66;10425047;28;20076;-71
2022/04/15 08:37:14;;;;;;;15.50;5.35;;;;;;;8.08;nan;100596.75;10415606;28;20041;-71
2022/04/15 08:42:20;;;;;;;15.00;5.07;;;;;;;8.28;nan;100683.31;10412045;28;20040;-71
2022/04/15 08:47:22;;;;;;;16.42;5.30;;;;;;;8.44;nan;100748.97;10413210;28;20058;-72
2022/04/15 08:52:24;;;;;;;17.50;6.38;;;;;;;8.50;nan;100764.78;10413507;28;20049;-70
2022/04/15 08:57:27;;;;;;;16.88;5.90;;;;;;;8.58;nan;100793.69;10413762;28;20045;-72
2022/04/15 09:02:35;;;;;;;12.48;5.53;;;;;;;8.49;nan;100773.44;10423388;28;20065;-71
2022/04/15 09:07:40;;;;;;;12.48;6.00;;;;;;;8.40;nan;100734.03;10416574;28;20041;-71
2022/04/15 09:12:42;;;;;;;15.93;7.05;;;;;;;8.31;nan;100709.47;10395696;28;20053;-71
2022/04/15 09:17:47;;;;;;;13.43;5.65;;;;;;;8.35;nan;100722.59;10410219;28;20714;-71
2022/04/15 09:22:55;;;;;;;16.92;6.00;;;;;;;8.39;nan;100741.00;10398923;28;20752;-71
2022/04/15 09:27:57;;;;;;;14.23;5.80;;;;;;;8.47;nan;100762.09;10399708;28;20041;-70
2022/04/15 09:33:01;;;;;;;19.77;7.05;;;;;;;8.56;nan;100806.69;10405036;28;20089;-71
2022/04/15 09:38:04;;;;;;;14.18;6.15;;;;;;;8.59;nan;100816.34;10399167;28;20048;-71
2022/04/15 09:43:07;;;;;;;13.45;6.35;;;;;;;8.56;nan;100811.91;10395713;28;20143;-70
2022/04/15 09:48:12;;;;;;;11.27;5.32;;;;;;;8.63;nan;100845.16;10403509;28;20512;-71
2022/04/15 09:53:14;;;;;;;20.60;6.32;;;;;;;8.64;nan;100844.31;10399017;28;20221;-70
2022/04/15 09:58:17;;;;;;;14.77;6.25;;;;;;;8.55;nan;100809.25;10402465;28;20041;-70
2022/04/15 10:03:20;;;;;;;13.98;6.18;;;;;;;8.49;nan;100783.88;10405654;28;20988;-71
2022/04/15 10:08:24;;;;;;;19.73;6.53;;;;;;;8.54;nan;100803.19;10409353;28;20051;-69
2022/04/15 10:13:28;;;;;;;15.25;6.32;;;;;;;8.44;nan;100764.63;10402342;28;20053;-70
2022/04/15 10:18:31;;;;;;;20.60;6.97;;;;;;;8.48;nan;100787.34;10391354;28;20033;-70
2022/04/15 10:23:34;;;;;;;17.50;6.90;;;;;;;8.48;nan;100785.63;10403055;28;20049;-71
2022/04/15 10:28:42;;;;;;;17.95;7.60;;;;;;;8.47;nan;100782.97;10406428;28;20041;-71
2022/04/15 10:33:49;;;;;;;18.48;8.18;;;;;;;8.42;nan;100763.66;10409313;28;20611;-69
2022/04/15 10:39:03;;;;;;;17.33;7.97;;;;;;;8.51;nan;100803.06;10405790;28;20128;-71
2022/04/15 10:44:05;;;;;;;17.30;7.60;;;;;;;8.69;nan;100880.09;10403054;28;20573;-71
2022/04/15 10:49:23;;;;;;;20.42;7.85;;;;;;;8.86;nan;100946.72;10405266;28;20127;-72
2022/04/15 10:54:30;;;;;;;16.08;7.38;;;;;;;9.00;nan;101013.22;10407733;28;20056;-71
2022/04/15 11:04:56;;;;;;;17.73;7.10;;;;;;;9.09;nan;101040.47;10412509;28;20045;-71
2022/04/15 11:09:59;;;;;;;15.50;6.97;;;;;;;9.16;nan;101076.38;10407421;28;20076;-72
2022/04/15 11:15:01;;;;;;;15.40;6.65;;;;;;;9.16;nan;101073.75;10401924;28;20495;-70
2022/04/15 11:20:06;;;;;;;19.70;7.05;;;;;;;9.38;nan;101162.34;10396940;28;20041;-66
2022/04/15 11:25:09;;;;;;;15.10;7.15;;;;;;;9.46;nan;101204.38;10394620;28;20593;-73
2022/04/15 11:30:13;;;;;;;15.60;7.35;;;;;;;9.60;nan;101259.66;10305381;28;20057;-74
2022/04/15 11:35:30;;;;;;;20.63;6.97;;;;;;;9.68;nan;101292.16;10354925;28;20050;-74
2022/04/15 11:40:36;;;;;;;15.15;6.20;;;;;;;9.74;nan;101322.81;10350736;28;20034;-73
2022/04/15 11:45:43;;;;;;;14.52;6.63;;;;;;;9.76;nan;101323.75;10352847;28;20045;-74
2022/04/15 11:50:46;;;;;;;11.57;5.88;;;;;;;10.02;nan;101438.75;10356195;28;20054;-74
2022/04/15 11:56:00;;;;;;;14.38;6.10;;;;;;;10.00;nan;101436.06;10360598;28;20060;-73
2022/04/15 12:01:02;;;;;;;13.35;6.03;;;;;;;10.03;nan;101437.91;10362474;28;20049;-73
2022/04/15 12:06:05;;;;;;;13.02;5.78;;;;;;;10.08;nan;101463.34;10365367;28;20053;-69
2022/04/15 12:11:07;;;;;;;12.48;5.47;;;;;;;10.14;nan;101491.44;10369565;28;20049;-69
2022/04/15 12:16:10;;;;;;;17.13;5.43;;;;;;;10.18;nan;101503.78;10361378;28;20192;-70
2022/04/15 12:21:12;;;;;;;13.35;6.25;;;;;;;10.18;nan;101502.91;10368466;28;20042;-70
2022/04/15 12:26:14;;;;;;;15.70;6.40;;;;;;;10.07;nan;101458.06;10359169;28;20049;-70
2022/04/15 12:31:29;;;;;;;12.73;6.20;;;;;;;10.20;nan;101514.28;10374213;28;20038;-70
2022/04/15 12:36:47;;;;;;;19.25;7.50;;;;;;;10.06;nan;101467.66;10381297;28;20505;-70
2022/04/15 12:41:49;;;;;;;15.20;7.22;;;;;;;9.98;nan;101424.66;10373153;28;20073;-70
2022/04/15 12:47:00;;;;;;;14.82;6.97;;;;;;;10.01;nan;101437.88;10381806;28;20052;-71
2022/04/15 12:52:13;;;;;;;13.25;7.28;;;;;;;9.98;nan;101427.28;10371382;28;20038;-70
2022/04/15 12:57:18;;;;;;;14.65;6.93;;;;;;;10.12;nan;101485.28;10362090;28;20050;-70
2022/04/15 13:02:19;;;;;;;14.65;6.40;;;;;;;10.20;nan;101516.91;10373057;28;20496;-70
2022/04/15 13:07:22;;;;;;;15.88;7.70;;;;;;;10.44;nan;101611.03;10377992;28;20053;-70
2022/04/15 13:12:23;;;;;;;13.82;6.68;;;;;;;10.42;nan;101608.38;10367664;28;20061;-70
2022/04/15 13:17:25;;;;;;;12.23;6.47;;;;;;;10.50;nan;101640.03;10374076;28;20136;-70
2022/04/15 13:22:27;;;;;;;14.48;6.40;;;;;;;10.60;nan;101677.88;10369472;28;20421;-71
2022/04/15 13:27:28;;;;;;;12.18;5.82;;;;;;;10.55;nan;101659.41;10369421;28;20205;-70
2022/04/15 13:32:30;;;;;;;12.70;5.90;;;;;;;10.47;nan;101620.72;10365657;28;20045;-70
2022/04/15 13:37:32;;;;;;;11.10;5.60;;;;;;;10.39;nan;101595.19;10374135;28;20069;-71
2022/04/15 13:42:33;;;;;;;10.95;5.25;;;;;;;10.65;nan;101699.84;10363713;28;20084;-70
2022/04/15 13:47:35;;;;;;;10.15;6.00;;;;;;;10.69;nan;101719.16;10362557;28;20038;-71
2022/04/15 13:57:57;;;;;;;;;;;;;;;10.96;nan;101826.59;10366654;28;20066;-71
2022/04/15 14:02:59;;;;;;;11.52;4.93;;;;;;;10.99;nan;101837.19;10359323;28;20502;-70
2022/04/15 14:08:01;;;;;;;11.60;5.07;;;;;;;10.69;nan;101722.69;10366714;28;20561;-70
2022/04/15 14:13:03;;;;;;;11.50;5.20;;;;;;;10.75;nan;101742.97;10356237;28;20041;-71
2022/04/15 14:18:05;;;;;;;11.57;4.88;;;;;;;10.86;nan;101788.72;10367453;28;20050;-70
2022/04/15 14:23:06;;;;;;;11.30;4.88;;;;;;;11.06;nan;101874.94;10348159;28;20092;-70
2022/04/15 14:28:08;;;;;;;10.13;4.80;;;;;;;11.02;nan;101855.63;10361362;28;20046;-71
2022/04/15 14:33:11;;;;;;;13.27;4.75;;;;;;;11.13;nan;101893.53;10358657;28;20325;-71
2022/04/15 14:38:13;;;;;;;10.30;5.07;;;;;;;11.22;nan;101934.91;10358709;28;20042;-71
2022/04/15 14:43:15;;;;;;;11.38;5.10;;;;;;;11.25;nan;101950.72;10343695;28;20046;-70
2022/04/15 14:48:17;;;;;;;9.73;5.13;;;;;;;11.03;nan;101860.00;10351540;28;20045;-70
2022/04/15 14:53:18;;;;;;;11.45;5.63;;;;;;;10.96;nan;101832.72;10357875;28;20046;-70
2022/04/15 14:58:20;;;;;;;12.20;5.25;;;;;;;10.93;nan;101816.91;10357753;28;20137;-69
2022/04/15 15:03:23;;;;;;;9.40;5.00;;;;;;;10.93;nan;101813.41;10347799;28;20050;-73
2022/04/15 15:08:24;;;;;;;10.85;5.25;;;;;;;10.85;nan;101775.56;10359824;28;20061;-71
2022/04/15 15:13:28;;;;;;;11.00;5.15;;;;;;;10.85;nan;101780.81;10360563;28;20798;-70
2022/04/15 15:18:33;;;;;;;13.02;5.57;;;;;;;10.88;nan;101796.63;10362714;28;20789;-71
2022/04/15 15:23:35;;;;;;;12.10;5.38;;;;;;;10.91;nan;101799.34;10364447;28;20631;-71
2022/04/15 15:34:17;;;;;;;11.75;4.78;;;;;;;10.72;nan;101730.66;10371730;28;20041;-71
2022/04/15 15:39:20;;;;;;;11.00;4.85;;;;;;;10.63;nan;101687.53;10347173;28;20136;-70
2022/04/15 15:44:22;;;;;;;10.15;4.40;;;;;;;10.52;nan;101646.19;10355457;28;20049;-71
2022/04/15 15:49:24;;;;;;;11.15;5.00;;;;;;;10.50;nan;101631.28;10355151;28;20038;-71
2022/04/15 15:54:25;;;;;;;9.85;4.72;;;;;;;10.36;nan;101576.78;10364449;28;20054;-71
2022/04/15 15:59:28;;;;;;;8.55;4.45;;;;;;;10.46;nan;101619.81;10369700;28;20719;-71
2022/04/15 16:04:30;;;;;;;10.40;4.72;;;;;;;10.38;nan;101590.78;10361914;28;20046;-71
2022/04/15 16:09:34;;;;;;;10.60;4.18;;;;;;;10.24;nan;101521.41;10362651;28;20093;-71
2022/04/15 16:14:39;;;;;;;9.85;4.05;;;;;;;10.18;nan;101503.78;10365229;28;20416;-71
2022/04/15 16:19:41;;;;;;;8.93;3.65;;;;;;;10.02;nan;101447.47;10363686;28;20042;-72
2022/04/15 16:24:43;;;;;;;8.60;4.55;;;;;;;9.95;nan;101410.63;10362056;28;20070;-72
2022/04/15 16:29:45;;;;;;;9.70;3.65;;;;;;;9.89;nan;101390.38;10354859;28;20037;-72
2022/04/15 16:34:47;;;;;;;8.60;3.88;;;;;;;9.92;nan;101400.94;10369090;28;20048;-71
2022/04/15 16:39:49;;;;;;;8.50;3.78;;;;;;;10.41;nan;101603.97;10367685;28;20785;-72
2022/04/15 16:44:51;;;;;;;11.73;3.30;;;;;;;10.62;nan;101684.03;10373556;28;20128;-71
2022/04/15 16:50:16;;;;;;;11.50;3.83;;;;;;;11.13;nan;101888.28;10380604;28;20042;-71
2022/04/15 17:00:37;;;;;;;10.32;3.85;;;;;;;10.98;nan;101829.25;10360570;28;20267;-72
2022/04/15 17:05:40;;;;;;;16.00;6.03;;;;;;;10.49;nan;101630.38;10354589;28;20194;-72
2022/04/15 17:10:42;;;;;;;9.75;4.43;;;;;;;10.03;nan;101446.63;10363614;28;20308;-72
2022/04/15 17:15:44;;;;;;;13.43;5.55;;;;;;;9.97;nan;101414.16;10365275;28;20505;-70
2022/04/15 17:20:46;;;;;;;10.90;4.78;;;;;;;10.40;nan;101591.75;10364667;28;21815;-70
2022/04/15 17:25:49;;;;;;;13.23;5.20;;;;;;;10.54;nan;101646.28;10371266;28;20497;-71
2022/04/15 17:30:53;;;;;;;9.77;4.95;;;;;;;10.26;nan;101535.41;10360560;28;20069;-70
2022/04/15 17:35:56;;;;;;;12.30;4.78;;;;;;;10.08;nan;101471.19;10366278;28;20128;-71
2022/04/15 17:40:58;;;;;;;11.18;4.72;;;;;;;9.99;nan;101434.28;10369109;28;20041;-70
2022/04/15 17:46:00;;;;;;;9.68;4.65;;;;;;;9.88;nan;101386.88;10366802;28;20404;-70
2022/04/15 17:51:02;;;;;;;11.20;5.80;;;;;;;9.89;nan;101393.91;10366181;28;20046;-71
2022/04/15 17:56:04;;;;;;;11.10;5.40;;;;;;;9.79;nan;101341.25;10365280;28;20056;-71
2022/04/15 18:01:06;;;;;;;10.93;5.70;;;;;;;9.60;nan;101267.50;10362990;28;20040;-71
2022/04/15 18:06:08;;;;;;;14.48;6.20;;;;;;;9.61;nan;101269.28;10359765;28;20171;-71
2022/04/15 18:11:10;;;;;;;13.93;6.40;;;;;;;9.53;nan;101239.41;10358307;28;20041;-70
2022/04/15 18:16:12;;;;;;;15.35;6.00;;;;;;;9.43;nan;101200.78;10357241;28;20045;-69
2022/04/15 18:21:15;;;;;;;10.13;5.82;;;;;;;9.38;nan;101177.13;10356026;28;20044;-69
2022/04/15 18:26:16;;;;;;;11.57;6.10;;;;;;;9.34;nan;101170.94;10361093;28;20539;-69
2022/04/15 18:31:18;;;;;;;13.25;6.10;;;;;;;9.35;nan;101170.09;10352425;28;20388;-69
2022/04/15 18:36:19;;;;;;;11.95;5.80;;;;;;;9.33;nan;101161.31;10375274;28;20045;-69
2022/04/15 18:41:21;;;;;;;10.63;6.00;;;;;;;9.27;nan;101140.25;10367553;28;20042;-69
2022/04/15 18:46:23;;;;;;;13.13;6.03;;;;;;;9.24;nan;101124.47;10361697;28;20053;-69
2022/04/15 18:56:46;;;;;;;13.05;6.30;;;;;;;9.21;nan;101116.56;10368451;28;20057;-71
2022/04/15 19:01:48;;;;;;;13.02;6.75;;;;;;;9.12;nan;101080.59;10366203;28;20121;-71
2022/04/15 19:06:50;;;;;;;13.18;6.35;;;;;;;9.08;nan;101067.41;10370546;28;20046;-71
2022/04/15 19:11:51;;;;;;;14.48;7.28;;;;;;;9.07;nan;101060.41;10369174;28;20061;-71
2022/04/15 19:16:53;;;;;;;15.73;7.03;;;;;;;9.03;nan;101049.88;10373417;28;20048;-71
2022/04/15 19:21:55;;;;;;;13.63;6.88;;;;;;;9.03;nan;101049.88;10369890;28;20038;-71
2022/04/15 19:26:57;;;;;;;13.90;7.47;;;;;;;8.98;nan;101020.16;10360337;28;20519;-71
2022/04/15 19:31:59;;;;;;;16.10;6.82;;;;;;;8.94;nan;101018.28;10359890;28;20041;-71
2022/04/15 19:37:01;;;;;;;12.48;6.68;;;;;;;8.90;nan;100995.53;10359501;28;20786;-69
2022/04/15 19:42:03;;;;;;;14.52;7.40;;;;;;;8.88;nan;100986.78;10365419;28;20030;-71
2022/04/15 19:47:05;;;;;;;14.23;6.35;;;;;;;8.87;nan;100981.53;10376643;28;20080;-69
2022/04/15 19:52:07;;;;;;;16.10;7.53;;;;;;;8.84;nan;100969.25;10381290;28;20455;-70
2022/04/15 20:02:49;;;;;;;14.47;7.00;;;;;;;8.66;nan;100897.47;10349190;28;20464;-69
2022/04/15 20:07:51;;;;;;;13.82;6.88;;;;;;;8.54;nan;100860.59;10352144;28;20186;-72
2022/04/15 20:12:53;;;;;;;15.80;7.18;;;;;;;8.46;nan;100817.72;10356334;28;20053;-72
2022/04/15 20:17:55;;;;;;;19.63;7.53;;;;;;;8.44;nan;100816.81;10365335;28;20080;-71
2022/04/15 20:22:57;;;;;;;15.35;7.35;;;;;;;8.43;nan;100809.78;10362243;28;20108;-72
2022/04/15 20:27:59;;;;;;;17.50;7.45;;;;;;;8.38;nan;100796.63;10378115;28;20041;-72
2022/04/15 20:33:01;;;;;;;16.02;7.72;;;;;;;8.33;nan;100774.75;10371072;28;20104;-72
2022/04/15 20:38:03;;;;;;;13.00;7.68;;;;;;;8.35;nan;100774.78;10370304;28;20045;-72
2022/04/15 20:43:07;;;;;;;17.23;7.35;;;;;;;8.30;nan;100759.91;10375474;28;20041;-72
2022/04/15 20:53:29;;;;;;;;;;;;;;;8.16;nan;100706.50;10373816;28;20034;-72
2022/04/15 20:58:31;;;;;;;15.48;8.52;;;;;;;8.12;nan;100696.81;10357718;28;19926;-72
2022/04/15 21:03:33;;;;;;;17.05;8.02;;;;;;;8.07;nan;100674.97;10368397;28;20105;-72
2022/04/15 21:08:42;;;;;;;17.67;8.88;;;;;;;8.13;nan;100695.97;10365773;28;20084;-72
2022/04/15 21:13:54;;;;;;;16.77;8.73;;;;;;;8.17;nan;100716.09;10349158;28;20052;-72
2022/04/15 21:18:55;;;;;;;22.58;9.85;;;;;;;8.17;nan;100716.09;10372116;28;20053;-72
2022/04/15 21:24:02;;;;;;;23.30;9.45;;;;;;;8.14;nan;100708.19;10355705;28;20042;-72
2022/04/15 21:29:07;;;;;;;17.67;8.38;;;;;;;8.10;nan;100691.56;10375350;28;20508;-72
2022/04/15 21:34:12;;;;;;;19.48;8.75;;;;;;;8.07;nan;100686.25;10358625;28;20045;-72
2022/04/15 21:39:14;;;;;;;18.98;8.75;;;;;;;8.10;nan;100693.28;10376205;28;20037;-72
2022/04/15 21:44:17;;;;;;;17.88;9.00;;;;;;;8.08;nan;100692.38;10376214;28;20048;-72
2022/04/15 21:49:21;;;;;;;16.77;8.88;;;;;;;8.09;nan;100699.34;10372630;28;20887;-72
2022/04/15 21:54:24;;;;;;;21.65;9.40;;;;;;;8.08;nan;100697.59;10367923;28;20532;-72
2022/04/15 21:59:31;;;;;;;16.92;8.45;;;;;;;8.11;nan;100703.75;10368613;28;20131;-72
2022/04/15 22:04:36;;;;;;;17.77;9.30;;;;;;;8.13;nan;100716.84;10373738;28;20452;-71
2022/04/15 22:09:40;;;;;;;16.48;8.93;;;;;;;8.12;nan;100715.06;10362960;28;20064;-72
2022/04/15 22:14:44;;;;;;;20.38;9.32;;;;;;;8.14;nan;100721.22;10368561;28;20045;-72
2022/04/15 22:19:52;;;;;;;18.73;9.82;;;;;;;8.09;nan;100709.78;10369211;28;20037;-72
2022/04/15 22:24:54;;;;;;;21.48;10.38;;;;;;;8.16;nan;100734.31;10357675;28;20107;-72
2022/04/15 22:29:58;;;;;;;18.75;9.57;;;;;;;8.06;nan;100701.88;10367570;28;20042;-72
2022/04/15 22:35:00;;;;;;;22.65;10.95;;;;;;;8.06;nan;100700.16;10350098;28;20076;-72
2022/04/15 22:40:03;;;;;;;20.85;9.95;;;;;;;8.11;nan;100727.25;10370615;28;20410;-72
2022/04/15 22:45:05;;;;;;;23.00;10.70;;;;;;;8.09;nan;100715.88;10357910;28;20045;-72
2022/04/15 22:50:08;;;;;;;22.63;10.95;;;;;;;8.07;nan;100703.66;10371586;28;20065;-71
2022/04/15 23:00:31;;;;;;;22.13;12.38;;;;;;;7.96;nan;100672.97;10378924;28;20048;-71
2022/04/15 23:05:34;;;;;;;24.52;13.30;;;;;;;7.86;nan;100624.03;10372534;28;20056;-72
2022/04/15 23:10:36;;;;;;;28.42;13.10;;;;;;;7.84;nan;100622.25;10376283;28;20061;-71
2022/04/15 23:15:41;;;;;;;26.42;13.38;;;;;;;7.76;nan;100593.34;10372479;28;20054;-71
2022/04/15 23:20:43;;;;;;;27.45;13.88;;;;;;;7.60;nan;100542.56;10372636;28;20044;-72
2022/04/15 23:25:45;;;;;;;32.17;14.68;;;;;;;7.51;nan;100496.31;10377382;28;20042;-72
2022/04/15 23:30:47;;;;;;;30.85;15.70;;;;;;;7.33;nan;100429.00;10368843;28;20033;-71
2022/04/15 23:35:49;;;;;;;29.40;14.77;;;;;;;7.23;nan;100391.44;10361333;28;20488;-72
2022/04/15 23:40:51;;;;;;;29.38;14.77;;;;;;;7.14;nan;100354.75;10359598;28;20045;-72
2022/04/15 23:51:13;;;;;;;28.25;13.77;;;;;;;6.89;nan;100263.06;10369921;28;20515;-72
2022/04/15 23:56:14;;;;;;;30.70;15.50;;;;;;;6.81;nan;100228.16;10374332;28;20052;-72
